Time;durP1;ratioP1;P1;durP2;ratioP2;P2;SDS_P1;SDS_P2;PMS_P1;PMS_P2;Temp;Humidity;BMP_temperature;BMP_pressure;BME280_temperature;BME280_humidity;BME280_pressure;Samples;Min_cycle;Max_cycle;Signal;HPM_P1;HPM_P2
2023/04/21 00:00:54;;;;;;;3.95;3.65;;;21.80;80.80;;;;;;5051439;28;20112;-68
2023/04/21 00:03:22;;;;;;;4.55;4.15;;;21.80;80.90;;;;;;5051842;28;20108;-68
2023/04/21 00:05:48;;;;;;;3.33;3.03;;;21.80;80.90;;;;;;5051962;28;20040;-68
2023/04/21 00:08:15;;;;;;;4.25;3.53;;;21.80;81.00;;;;;;5051488;28;20063;-68
2023/04/21 00:10:41;;;;;;;3.83;3.53;;;21.80;81.00;;;;;;5051825;28;20028;-68
2023/04/21 00:13:07;;;;;;;5.10;3.63;;;21.80;81.10;;;;;;5051901;28;20021;-68
2023/04/21 00:15:33;;;;;;;3.70;3.40;;;21.80;81.20;;;;;;5051053;28;20090;-68
2023/04/21 00:17:58;;;;;;;3.90;3.60;;;21.80;81.20;;;;;;5052042;28;20029;-68
2023/04/21 00:20:27;;;;;;;4.30;4.00;;;21.70;81.20;;;;;;5050873;28;20021;-68
2023/04/21 00:22:54;;;;;;;4.68;4.22;;;21.80;81.30;;;;;;5051821;28;20028;-68
2023/04/21 00:25:19;;;;;;;4.15;3.85;;;21.80;81.40;;;;;;5051662;28;20432;-68
2023/04/21 00:27:45;;;;;;;4.40;4.00;;;21.90;81.50;;;;;;5051361;28;20096;-69
2023/04/21 00:30:11;;;;;;;4.85;4.35;;;21.80;81.80;;;;;;5051640;28;20028;-68
2023/04/21 00:32:37;;;;;;;4.85;4.40;;;21.90;83.10;;;;;;5051617;28;20053;-69
2023/04/21 00:35:03;;;;;;;5.18;4.50;;;21.90;83.70;;;;;;5050819;28;20392;-68
2023/04/21 00:37:28;;;;;;;5.03;4.63;;;21.90;83.70;;;;;;5051584;28;20045;-68
2023/04/21 00:39:54;;;;;;;5.63;5.10;;;21.90;83.80;;;;;;5053353;28;20040;-69
2023/04/21 00:42:20;;;;;;;5.13;4.63;;;22.00;83.80;;;;;;5054686;28;20040;-69
2023/04/21 00:44:45;;;;;;;5.28;4.88;;;22.00;83.90;;;;;;5055618;28;20033;-68
2023/04/21 00:47:11;;;;;;;5.63;5.13;;;21.90;83.70;;;;;;5055416;28;20048;-68
2023/04/21 00:49:36;;;;;;;5.22;4.72;;;22.00;83.60;;;;;;5054794;28;20503;-68
2023/04/21 00:52:07;;;;;;;5.55;5.05;;;22.00;84.20;;;;;;5055463;28;20033;-68
2023/04/21 00:54:34;;;;;;;5.35;4.78;;;22.00;83.60;;;;;;5055577;28;20126;-68
2023/04/21 00:57:00;;;;;;;5.38;4.97;;;22.00;83.60;;;;;;5054252;28;20025;-68
2023/04/21 00:59:26;;;;;;;4.55;4.15;;;22.00;83.40;;;;;;5055216;28;20503;-69
2023/04/21 01:01:52;;;;;;;5.07;4.63;;;22.00;83.50;;;;;;5055392;28;20052;-69
2023/04/21 01:04:18;;;;;;;4.93;4.45;;;22.00;83.50;;;;;;5054071;28;20438;-69
2023/04/21 01:06:44;;;;;;;4.95;4.55;;;22.00;83.50;;;;;;5055132;28;20025;-69
2023/04/21 01:09:11;;;;;;;5.15;4.72;;;21.90;83.60;;;;;;5054915;28;20032;-69
2023/04/21 01:11:37;;;;;;;4.57;4.28;;;22.00;83.70;;;;;;5054378;28;20044;-69
2023/04/21 01:14:04;;;;;;;4.68;4.28;;;21.90;83.60;;;;;;5054730;28;20029;-69
2023/04/21 01:16:31;;;;;;;5.32;4.78;;;22.00;83.70;;;;;;5054920;28;20029;-68
2023/04/21 01:18:58;;;;;;;4.38;3.95;;;22.00;83.70;;;;;;5054827;28;20100;-68
2023/04/21 01:21:23;;;;;;;4.57;4.18;;;22.00;83.70;;;;;;5054444;28;20037;-68
2023/04/21 01:23:49;;;;;;;4.72;4.32;;;22.00;83.70;;;;;;5054081;28;20091;-68
2023/04/21 01:26:20;;;;;;;4.97;4.57;;;21.90;83.70;;;;;;5054512;28;20072;-68
2023/04/21 01:28:47;;;;;;;5.22;4.68;;;21.90;83.60;;;;;;5054796;28;20439;-68
2023/04/21 01:31:13;;;;;;;4.90;4.55;;;21.90;83.60;;;;;;5053620;28;20037;-68
2023/04/21 01:33:39;;;;;;;5.18;4.70;;;22.00;83.60;;;;;;5054604;28;20096;-69
2023/04/21 01:36:05;;;;;;;5.38;4.50;;;21.90;83.60;;;;;;5054541;28;20079;-68
2023/04/21 01:38:31;;;;;;;5.28;4.78;;;21.90;83.60;;;;;;5053815;28;20491;-68
2023/04/21 01:40:56;;;;;;;4.72;4.40;;;21.90;83.60;;;;;;5054647;28;20057;-68
2023/04/21 01:43:24;;;;;;;5.57;4.90;;;22.00;83.70;;;;;;5054245;28;20376;-68
2023/04/21 01:45:51;;;;;;;5.30;4.90;;;22.00;83.70;;;;;;5053673;28;20040;-68
2023/04/21 01:48:16;;;;;;;5.50;5.03;;;21.90;83.60;;;;;;5053970;28;20074;-69
2023/04/21 01:50:42;;;;;;;4.88;4.47;;;21.90;83.60;;;;;;5053729;28;20108;-68
2023/04/21 01:53:07;;;;;;;5.05;4.57;;;22.00;83.70;;;;;;5052964;28;20473;-69
2023/04/21 01:55:34;;;;;;;5.68;4.70;;;21.90;83.70;;;;;;5054513;28;20027;-69
2023/04/21 01:57:59;;;;;;;5.68;5.20;;;21.90;83.70;;;;;;5053737;28;20052;-69
2023/04/21 02:00:25;;;;;;;5.32;4.93;;;21.90;83.70;;;;;;5053302;28;20056;-69
2023/04/21 02:02:51;;;;;;;5.57;5.07;;;21.90;83.70;;;;;;5054078;28;20031;-69
2023/04/21 02:05:17;;;;;;;5.13;4.72;;;21.90;83.70;;;;;;5053563;28;20495;-69
2023/04/21 02:07:42;;;;;;;5.13;4.72;;;21.80;83.60;;;;;;5053304;28;20033;-69
2023/04/21 02:10:09;;;;;;;4.93;4.53;;;21.90;83.70;;;;;;5053929;28;20432;-69
2023/04/21 02:12:34;;;;;;;5.88;5.40;;;21.90;83.60;;;;;;5053874;28;20028;-69
2023/04/21 02:15:00;;;;;;;5.90;4.53;;;21.90;83.70;;;;;;5052690;28;20029;-69
2023/04/21 02:17:25;;;;;;;5.68;5.07;;;21.90;83.70;;;;;;5054176;28;20025;-69
2023/04/21 02:19:51;;;;;;;5.22;4.82;;;21.90;83.60;;;;;;5053006;28;20040;-69
2023/04/21 02:22:16;;;;;;;5.63;5.13;;;21.90;83.60;;;;;;5053618;28;20373;-69
2023/04/21 02:24:42;;;;;;;5.28;4.88;;;21.80;83.50;;;;;;5053612;28;20400;-68
2023/04/21 02:27:07;;;;;;;5.10;4.65;;;21.80;83.50;;;;;;5052754;28;20021;-69
2023/04/21 02:29:33;;;;;;;5.00;4.55;;;21.90;83.60;;;;;;5053573;28;20055;-69
2023/04/21 02:31:58;;;;;;;5.07;4.60;;;21.90;83.50;;;;;;5053351;28;20040;-69
2023/04/21 02:34:24;;;;;;;5.25;4.85;;;21.90;83.50;;;;;;5052924;28;20055;-69
2023/04/21 02:36:49;;;;;;;6.55;5.50;;;21.90;83.50;;;;;;5053660;28;20025;-69
2023/04/21 02:39:15;;;;;;;5.40;4.95;;;21.90;83.60;;;;;;5053272;28;20029;-69
2023/04/21 02:41:40;;;;;;;4.95;4.53;;;21.90;83.60;;;;;;5052757;28;20111;-68
2023/04/21 02:44:06;;;;;;;5.00;4.60;;;21.90;83.70;;;;;;5053178;28;20163;-68
2023/04/21 02:46:32;;;;;;;5.30;4.80;;;21.90;83.70;;;;;;5053168;28;20103;-68
2023/04/21 02:48:57;;;;;;;4.93;4.53;;;21.90;83.80;;;;;;5052818;28;20029;-69
2023/04/21 02:51:23;;;;;;;5.03;4.63;;;21.80;83.70;;;;;;5052856;28;20025;-69
2023/04/21 02:53:48;;;;;;;5.68;5.25;;;21.80;83.80;;;;;;5053288;28;20028;-69
2023/04/21 02:56:14;;;;;;;5.28;4.88;;;21.90;83.80;;;;;;5052212;28;20025;-69
2023/04/21 02:58:40;;;;;;;6.50;5.30;;;21.90;83.80;;;;;;5053078;28;20032;-69
2023/04/21 03:01:05;;;;;;;5.30;4.80;;;21.90;83.80;;;;;;5052728;28;20032;-68
2023/04/21 03:03:32;;;;;;;6.00;5.50;;;21.90;83.90;;;;;;5051940;28;20021;-69
2023/04/21 03:06:02;;;;;;;5.68;5.28;;;21.90;83.90;;;;;;5052869;28;20047;-69
2023/04/21 03:08:29;;;;;;;5.97;5.55;;;21.90;83.90;;;;;;5052911;28;20052;-68
2023/04/21 03:10:55;;;;;;;5.80;5.40;;;21.90;83.90;;;;;;5052074;28;20035;-68
2023/04/21 03:13:22;;;;;;;5.63;5.22;;;21.90;83.90;;;;;;5052472;28;20025;-68
2023/04/21 03:15:47;;;;;;;6.20;5.50;;;21.90;83.90;;;;;;5052675;28;20029;-68
2023/04/21 03:18:13;;;;;;;6.55;5.95;;;21.80;83.90;;;;;;5051930;28;20362;-68
2023/04/21 03:20:38;;;;;;;6.57;5.90;;;21.90;84.00;;;;;;5052684;28;20029;-69
2023/04/21 03:23:04;;;;;;;5.97;5.47;;;21.80;83.90;;;;;;5052462;28;20079;-69
2023/04/21 03:25:30;;;;;;;6.45;5.95;;;21.90;84.00;;;;;;5051917;28;20503;-68
2023/04/21 03:27:55;;;;;;;6.70;6.10;;;21.90;83.90;;;;;;5052509;28;20082;-68
2023/04/21 03:30:24;;;;;;;5.93;5.43;;;21.80;83.90;;;;;;5051290;28;20439;-67
2023/04/21 03:32:50;;;;;;;5.97;5.57;;;21.90;84.00;;;;;;5052272;28;20056;-69
2023/04/21 03:35:15;;;;;;;5.93;5.47;;;21.90;84.00;;;;;;5052343;28;20025;-69
2023/04/21 03:37:41;;;;;;;6.05;5.65;;;21.90;84.00;;;;;;5051589;28;20024;-69
2023/04/21 03:40:07;;;;;;;5.90;5.50;;;21.90;84.00;;;;;;5052089;28;20036;-69
2023/04/21 03:42:33;;;;;;;7.18;6.53;;;21.90;84.00;;;;;;5052231;28;20029;-69
2023/04/21 03:45:08;;;;;;;6.18;5.68;;;21.80;84.00;;;;;;5051436;28;20037;-69
2023/04/21 03:47:35;;;;;;;6.15;5.65;;;21.90;84.10;;;;;;5052339;28;20032;-69
2023/04/21 03:50:03;;;;;;;6.70;6.10;;;21.90;84.10;;;;;;5052115;28;20044;-69
2023/04/21 03:52:29;;;;;;;6.30;5.80;;;21.80;84.10;;;;;;5051520;28;20444;-69
2023/04/21 03:54:54;;;;;;;6.80;6.30;;;21.90;84.10;;;;;;5051985;28;20056;-69
2023/04/21 03:57:20;;;;;;;6.80;6.25;;;21.90;84.10;;;;;;5051720;28;20119;-69
2023/04/21 03:59:45;;;;;;;7.00;6.32;;;21.80;84.10;;;;;;5051338;28;20029;-69
2023/04/21 04:02:11;;;;;;;6.55;6.05;;;21.90;84.20;;;;;;5051918;28;20021;-69
2023/04/21 04:04:36;;;;;;;6.47;5.97;;;21.90;84.20;;;;;;5051784;28;20510;-69
2023/04/21 04:07:02;;;;;;;7.68;6.75;;;21.90;84.20;;;;;;5050987;28;20029;-68
2023/04/21 04:09:28;;;;;;;7.55;6.80;;;21.90;84.20;;;;;;5051907;28;20100;-69
2023/04/21 04:11:53;;;;;;;6.65;6.05;;;21.90;84.20;;;;;;5052015;28;20036;-69
2023/04/21 04:14:19;;;;;;;6.93;6.43;;;21.90;84.20;;;;;;5051831;28;20021;-69
2023/04/21 04:16:45;;;;;;;6.57;6.07;;;21.90;84.30;;;;;;5055429;28;20037;-69
2023/04/21 04:19:10;;;;;;;6.97;6.28;;;21.90;84.30;;;;;;5055905;28;20021;-69
2023/04/21 04:21:36;;;;;;;7.32;6.72;;;21.90;84.30;;;;;;5055259;28;20392;-69
2023/04/21 04:24:04;;;;;;;6.80;6.30;;;21.90;84.30;;;;;;5055840;28;20064;-68
2023/04/21 04:26:32;;;;;;;6.57;5.97;;;21.90;84.30;;;;;;5055102;28;20041;-68
2023/04/21 04:28:59;;;;;;;6.57;6.07;;;22.00;84.40;;;;;;5056187;28;20092;-68
2023/04/21 04:31:25;;;;;;;6.85;6.25;;;21.90;84.30;;;;;;5055750;28;20051;-68
2023/04/21 04:33:51;;;;;;;6.82;6.32;;;21.90;84.30;;;;;;5054928;28;20489;-68
2023/04/21 04:36:16;;;;;;;7.43;6.82;;;22.00;84.40;;;;;;5055488;28;20039;-68
2023/04/21 04:38:42;;;;;;;7.07;6.50;;;22.00;84.40;;;;;;5055790;28;20025;-68
2023/04/21 04:41:07;;;;;;;6.55;6.03;;;22.00;84.40;;;;;;5054533;28;20029;-68
2023/04/21 04:43:35;;;;;;;6.72;6.13;;;22.00;84.40;;;;;;5056007;28;20056;-68
2023/04/21 04:46:02;;;;;;;7.57;6.50;;;22.00;84.40;;;;;;5055433;28;20040;-68
2023/04/21 04:48:27;;;;;;;7.05;6.55;;;22.00;84.40;;;;;;5054568;28;20109;-68
2023/04/21 04:50:53;;;;;;;6.85;6.35;;;21.90;84.40;;;;;;5055537;28;20112;-68
2023/04/21 04:53:19;;;;;;;6.55;6.00;;;22.00;84.40;;;;;;5055089;28;20029;-68
2023/04/21 04:55:46;;;;;;;6.88;6.38;;;22.00;84.30;;;;;;5054592;28;20029;-68
2023/04/21 04:58:11;;;;;;;7.57;6.97;;;21.90;84.30;;;;;;5055280;28;20029;-68
2023/04/21 05:00:37;;;;;;;7.40;6.80;;;22.00;84.40;;;;;;5055310;28;20052;-68
2023/04/21 05:03:03;;;;;;;7.75;7.15;;;22.00;84.40;;;;;;5054423;28;20044;-68
2023/04/21 05:05:29;;;;;;;7.80;7.20;;;22.00;84.40;;;;;;5055090;28;20082;-68
2023/04/21 05:07:54;;;;;;;7.10;6.60;;;22.00;84.40;;;;;;5055205;28;20021;-68
2023/04/21 05:10:20;;;;;;;6.95;6.35;;;22.00;84.40;;;;;;5053946;28;20029;-69
2023/04/21 05:12:45;;;;;;;7.35;6.75;;;22.00;84.40;;;;;;5055317;28;20120;-71
2023/04/21 05:15:11;;;;;;;7.13;6.03;;;22.00;84.50;;;;;;5054157;28;20112;-69
2023/04/21 05:17:36;;;;;;;8.27;7.63;;;22.00;84.60;;;;;;5053117;28;20021;-69
2023/04/21 05:20:06;;;;;;;7.47;6.82;;;22.10;84.60;;;;;;5053726;28;20030;-69
2023/04/21 05:22:36;;;;;;;7.30;6.70;;;22.00;84.60;;;;;;5053905;28;20037;-69
2023/04/21 05:25:02;;;;;;;7.65;7.05;;;22.00;84.70;;;;;;5051439;28;20040;-69
2023/04/21 05:27:28;;;;;;;6.82;6.30;;;22.10;84.90;;;;;;5054082;28;20017;-68
2023/04/21 05:29:54;;;;;;;6.82;6.32;;;22.10;85.10;;;;;;5053275;28;20039;-69
2023/04/21 05:32:19;;;;;;;7.63;6.93;;;22.10;85.00;;;;;;5053336;28;20132;-68
2023/04/21 05:34:45;;;;;;;6.97;6.45;;;22.10;85.00;;;;;;5051122;28;20048;-69
2023/04/21 05:37:13;;;;;;;7.22;6.68;;;22.10;85.10;;;;;;5052260;28;20020;-69
2023/04/21 05:39:39;;;;;;;7.78;7.18;;;22.10;85.20;;;;;;5053983;28;20025;-69
2023/04/21 05:42:05;;;;;;;7.55;6.95;;;22.10;85.20;;;;;;5054006;28;20013;-68
2023/04/21 05:44:31;;;;;;;7.57;6.97;;;22.10;85.30;;;;;;5052624;28;20029;-68
2023/04/21 05:46:56;;;;;;;7.78;7.07;;;22.10;85.30;;;;;;5047938;28;20496;-68
2023/04/21 05:49:22;;;;;;;7.32;6.70;;;22.10;85.30;;;;;;5047397;28;20044;-68
2023/04/21 05:51:47;;;;;;;7.18;6.57;;;22.10;85.40;;;;;;5052367;28;20434;-68
2023/04/21 05:54:13;;;;;;;7.60;6.95;;;22.10;85.40;;;;;;5051839;28;20478;-68
2023/04/21 05:56:38;;;;;;;7.70;7.03;;;22.20;85.50;;;;;;5053443;28;20461;-69
2023/04/21 05:59:05;;;;;;;7.13;6.63;;;22.10;85.40;;;;;;5052812;28;20103;-69
2023/04/21 06:01:31;;;;;;;7.40;6.82;;;22.20;85.50;;;;;;5051024;28;20384;-67
2023/04/21 06:03:57;;;;;;;8.23;7.53;;;22.20;85.50;;;;;;5054088;28;20040;-69
2023/04/21 06:06:25;;;;;;;7.45;6.85;;;22.20;85.60;;;;;;5052898;28;20037;-69
2023/04/21 06:08:50;;;;;;;7.57;6.97;;;22.20;85.60;;;;;;5054004;28;20098;-68
2023/04/21 06:11:16;;;;;;;7.18;6.57;;;22.20;85.60;;;;;;5053876;28;20496;-68
2023/04/21 06:13:41;;;;;;;6.80;6.30;;;22.20;85.70;;;;;;5053055;28;20048;-69
2023/04/21 06:16:07;;;;;;;8.23;7.53;;;22.20;85.70;;;;;;5052927;28;20021;-69
2023/04/21 06:18:32;;;;;;;7.55;6.95;;;22.20;85.80;;;;;;5053729;28;20021;-69
2023/04/21 06:20:58;;;;;;;6.85;6.35;;;22.20;85.80;;;;;;5053222;28;20354;-69
2023/04/21 06:23:23;;;;;;;7.65;7.05;;;22.20;86.40;;;;;;5052672;28;20028;-69
2023/04/21 06:26:03;;;;;;;7.57;6.97;;;22.10;85.80;;;;;;5053575;28;20051;-69
2023/04/21 06:28:30;;;;;;;8.00;7.38;;;22.20;85.90;;;;;;5053658;28;20076;-69
2023/04/21 06:30:56;;;;;;;7.45;6.88;;;22.10;85.80;;;;;;5053681;28;20404;-68
2023/04/21 06:33:21;;;;;;;7.13;6.63;;;22.20;86.00;;;;;;5052362;28;20045;-69
2023/04/21 06:35:47;;;;;;;8.25;7.57;;;22.20;86.00;;;;;;5053524;28;20476;-68
2023/04/21 06:38:12;;;;;;;7.05;6.53;;;22.20;86.10;;;;;;5053185;28;20033;-68
2023/04/21 06:40:38;;;;;;;8.27;7.45;;;22.20;86.10;;;;;;5052721;28;20021;-69
2023/04/21 06:43:03;;;;;;;8.00;7.30;;;22.20;86.20;;;;;;5053233;28;20469;-69
2023/04/21 06:45:29;;;;;;;8.32;7.63;;;22.20;86.30;;;;;;5053028;28;20492;-68
2023/04/21 06:47:54;;;;;;;7.53;7.03;;;22.20;86.40;;;;;;5052122;28;20029;-68
2023/04/21 06:50:20;;;;;;;7.80;7.20;;;22.10;86.60;;;;;;5050224;28;20029;-69
2023/04/21 06:52:45;;;;;;;9.80;7.72;;;22.20;86.70;;;;;;5051047;28;20013;-72
2023/04/21 06:55:11;;;;;;;8.98;8.30;;;22.10;86.80;;;;;;5049502;28;20512;-68
2023/04/21 06:57:37;;;;;;;10.25;9.15;;;22.20;86.90;;;;;;5050286;28;20064;-65
2023/04/21 07:00:04;;;;;;;9.77;8.98;;;22.10;86.80;;;;;;5050810;28;20017;-66
2023/04/21 07:02:30;;;;;;;9.40;8.70;;;22.10;87.50;;;;;;5049875;28;20072;-67
2023/04/21 07:04:56;;;;;;;9.55;8.85;;;22.20;87.10;;;;;;5051128;28;20065;-67
2023/04/21 07:07:21;;;;;;;10.30;9.43;;;22.20;87.20;;;;;;5052160;28;20118;-67
2023/04/21 07:09:47;;;;;;;10.77;9.90;;;22.20;87.40;;;;;;5051499;28;20074;-67
2023/04/21 07:12:13;;;;;;;11.13;10.23;;;22.20;87.20;;;;;;5052192;28;20021;-67
2023/04/21 07:14:38;;;;;;;11.57;10.48;;;22.20;87.10;;;;;;5051834;28;20484;-67
2023/04/21 07:17:04;;;;;;;11.70;10.70;;;22.10;87.10;;;;;;5049853;28;20013;-67
2023/04/21 07:19:29;;;;;;;14.43;10.98;;;22.10;87.20;;;;;;5050847;28;20021;-67
2023/04/21 07:21:55;;;;;;;12.52;11.43;;;22.10;87.20;;;;;;5051518;28;20056;-65
2023/04/21 07:24:20;;;;;;;11.98;10.88;;;22.10;87.30;;;;;;5050281;28;20063;-64
2023/04/21 07:26:46;;;;;;;11.30;10.25;;;22.10;87.40;;;;;;5051296;28;20037;-66
2023/04/21 07:29:11;;;;;;;12.25;11.27;;;22.10;87.30;;;;;;5049887;28;20078;-67
2023/04/21 07:31:37;;;;;;;10.98;10.07;;;22.10;87.40;;;;;;5049614;28;20463;-67
2023/04/21 07:34:02;;;;;;;11.40;10.50;;;22.10;87.50;;;;;;5050448;28;20137;-66
2023/04/21 07:36:28;;;;;;;12.43;11.43;;;22.10;87.50;;;;;;5050153;28;20127;-66
2023/04/21 07:38:53;;;;;;;12.18;11.27;;;22.10;87.40;;;;;;5051010;28;20048;-66
2023/04/21 07:41:19;;;;;;;13.30;12.07;;;22.10;87.30;;;;;;5050245;28;20091;-63
2023/04/21 07:43:45;;;;;;;13.90;12.57;;;22.10;87.20;;;;;;5050211;28;20083;-62
2023/04/21 07:46:12;;;;;;;13.65;12.57;;;22.10;87.10;;;;;;5051913;28;20029;-62
2023/04/21 07:48:38;;;;;;;14.65;13.35;;;22.10;87.10;;;;;;5051351;28;20033;-62
2023/04/21 07:51:03;;;;;;;15.15;13.95;;;22.10;87.30;;;;;;5051155;28;20025;-65
2023/04/21 07:53:29;;;;;;;14.10;12.82;;;22.10;87.10;;;;;;5051458;28;20392;-64
2023/04/21 07:55:55;;;;;;;15.70;14.30;;;22.10;87.20;;;;;;5052248;28;20040;-64
2023/04/21 07:58:21;;;;;;;14.80;13.57;;;22.00;87.10;;;;;;5050786;28;20028;-66
2023/04/21 08:00:46;;;;;;;16.38;14.45;;;22.10;87.20;;;;;;5052116;28;20029;-65
2023/04/21 08:03:12;;;;;;;14.90;13.68;;;22.10;87.40;;;;;;5051667;28;20025;-62
2023/04/21 08:05:37;;;;;;;31.63;13.75;;;22.10;87.30;;;;;;5050787;28;20175;-61
2023/04/21 08:08:03;;;;;;;15.23;13.75;;;22.10;87.30;;;;;;5051882;28;20055;-62
2023/04/21 08:10:29;;;;;;;15.15;12.60;;;22.10;87.20;;;;;;5051628;28;20476;-63
2023/04/21 08:12:54;;;;;;;14.05;12.68;;;22.10;87.00;;;;;;5051156;28;20114;-63
2023/04/21 08:15:20;;;;;;;12.40;11.45;;;22.10;86.90;;;;;;5051569;28;20167;-63
2023/04/21 08:17:46;;;;;;;13.35;12.05;;;22.10;86.80;;;;;;5051793;28;20524;-63
2023/04/21 08:20:12;;;;;;;12.27;11.38;;;22.10;86.80;;;;;;5050130;28;20021;-63
2023/04/21 08:22:37;;;;;;;13.55;12.45;;;22.10;86.80;;;;;;5051889;28;20025;-63
2023/04/21 08:25:04;;;;;;;12.77;11.35;;;22.10;86.60;;;;;;5051280;28;20029;-63
2023/04/21 08:27:30;;;;;;;13.43;11.75;;;22.10;86.80;;;;;;5051155;28;20071;-63
2023/04/21 08:29:55;;;;;;;13.05;12.02;;;22.00;86.80;;;;;;5051662;28;20032;-63
2023/04/21 08:32:23;;;;;;;12.50;11.50;;;22.00;86.90;;;;;;5051154;28;20041;-62
2023/04/21 08:34:50;;;;;;;12.48;10.80;;;22.00;86.90;;;;;;5049373;28;20044;-63
2023/04/21 08:37:17;;;;;;;15.02;10.52;;;22.00;87.60;;;;;;5051313;28;20546;-63
2023/04/21 08:39:43;;;;;;;12.93;11.60;;;22.10;88.10;;;;;;5050149;28;20036;-63
2023/04/21 08:42:09;;;;;;;13.05;11.85;;;22.10;88.00;;;;;;5051159;28;20029;-63
2023/04/21 08:44:34;;;;;;;12.70;11.07;;;22.10;87.90;;;;;;5051159;28;20060;-63
2023/04/21 08:47:00;;;;;;;12.55;11.45;;;22.10;88.10;;;;;;5050481;28;20037;-63
2023/04/21 08:49:28;;;;;;;11.52;10.63;;;22.00;88.20;;;;;;5051402;28;20060;-62
2023/04/21 08:51:54;;;;;;;11.98;10.95;;;22.10;88.00;;;;;;5051453;28;20029;-62
2023/04/21 08:54:20;;;;;;;11.90;10.63;;;22.10;87.80;;;;;;5050630;28;20025;-62
2023/04/21 08:56:47;;;;;;;10.13;9.23;;;22.10;88.90;;;;;;5051622;28;20021;-61
2023/04/21 08:59:13;;;;;;;10.95;9.15;;;22.20;88.90;;;;;;5051201;28;20057;-61
2023/04/21 09:02:09;;;;;;;10.35;9.10;;;22.20;88.50;;;;;;5052744;28;20060;-60
2023/04/21 09:04:37;;;;;;;11.00;9.90;;;22.20;88.40;;;;;;5053243;28;20051;-62
2023/04/21 09:07:03;;;;;;;11.80;10.70;;;22.20;88.10;;;;;;5053233;28;20107;-62
2023/04/21 09:09:28;;;;;;;10.77;9.27;;;22.20;87.90;;;;;;5053602;28;20125;-62
2023/04/21 09:11:58;;;;;;;10.70;9.70;;;22.20;87.50;;;;;;5054549;28;20041;-61
2023/04/21 09:14:33;;;;;;;11.17;9.47;;;22.10;87.30;;;;;;5053473;28;20025;-61
2023/04/21 09:17:03;;;;;;;14.35;9.77;;;22.10;87.60;;;;;;5053409;28;20025;-59
2023/04/21 09:19:33;;;;;;;12.00;11.00;;;22.10;87.40;;;;;;5053260;28;20563;-60
2023/04/21 09:22:02;;;;;;;11.98;10.88;;;22.00;87.50;;;;;;5051461;28;20037;-61
2023/04/21 09:24:28;;;;;;;12.95;11.77;;;22.00;87.70;;;;;;5052190;28;20025;-60
2023/04/21 09:26:54;;;;;;;13.98;11.63;;;22.00;87.80;;;;;;5051476;28;20029;-61
2023/04/21 09:29:24;;;;;;;13.05;11.18;;;22.00;87.90;;;;;;5050123;28;20025;-64
2023/04/21 09:31:50;;;;;;;14.55;11.30;;;22.00;88.00;;;;;;5050989;28;20041;-61
2023/04/21 09:34:25;;;;;;;11.93;10.73;;;22.00;88.10;;;;;;5050624;28;20025;-63
2023/04/21 09:37:04;;;;;;;14.05;11.43;;;21.90;88.60;;;;;;5051454;28;20021;-66
2023/04/21 09:39:30;;;;;;;13.40;10.82;;;22.00;88.80;;;;;;5050842;28;20021;-67
2023/04/21 09:41:57;;;;;;;13.30;11.57;;;22.00;89.30;;;;;;5053322;28;20170;-66
2023/04/21 09:44:26;;;;;;;21.95;12.10;;;22.00;90.90;;;;;;5053098;28;20036;-64
2023/04/21 09:46:58;;;;;;;11.90;10.68;;;22.00;93.70;;;;;;5054039;28;20366;-63
2023/04/21 09:49:28;;;;;;;16.02;12.50;;;22.00;93.80;;;;;;5051374;28;20029;-64
2023/04/21 09:51:54;;;;;;;17.35;13.25;;;22.00;93.80;;;;;;5051386;28;20043;-64
2023/04/21 09:54:25;;;;;;;13.90;12.50;;;22.00;92.40;;;;;;5049682;28;20403;-63
2023/04/21 09:56:54;;;;;;;20.50;12.25;;;21.90;92.10;;;;;;5053964;28;20033;-68
2023/04/21 09:59:24;;;;;;;16.35;12.65;;;21.90;92.50;;;;;;5050040;28;20391;-67
2023/04/21 10:01:51;;;;;;;13.63;12.35;;;21.80;92.70;;;;;;5048167;28;20025;-69
2023/04/21 10:04:18;;;;;;;14.05;12.00;;;21.90;92.40;;;;;;5051482;28;20025;-69
2023/04/21 10:06:45;;;;;;;13.00;11.70;;;22.00;93.00;;;;;;5053708;28;20040;-70
2023/04/21 10:09:12;;;;;;;22.45;11.50;;;22.00;92.30;;;;;;5052833;28;20121;-70
2023/04/21 10:11:38;;;;;;;12.13;11.13;;;22.10;92.70;;;;;;5052458;28;20227;-71
2023/04/21 10:14:03;;;;;;;11.85;10.73;;;22.20;92.20;;;;;;5050202;28;20023;-69
2023/04/21 10:16:29;;;;;;;12.35;11.15;;;22.30;92.00;;;;;;5052145;28;20100;-68
2023/04/21 10:18:54;;;;;;;15.65;10.73;;;22.30;91.50;;;;;;5052429;28;20017;-69
2023/04/21 10:21:21;;;;;;;12.30;11.07;;;22.30;91.00;;;;;;5049723;28;20457;-69
2023/04/21 10:23:52;;;;;;;11.90;10.63;;;22.40;91.70;;;;;;5052210;28;20032;-69
2023/04/21 10:26:34;;;;;;;11.75;10.75;;;22.50;91.80;;;;;;5052030;28;20094;-69
2023/04/21 10:29:03;;;;;;;12.00;10.15;;;22.60;90.60;;;;;;5052461;28;20029;-69
2023/04/21 10:31:32;;;;;;;10.73;9.75;;;22.70;90.50;;;;;;5050801;28;20569;-68
2023/04/21 10:34:07;;;;;;;11.57;10.65;;;22.70;90.90;;;;;;5052149;28;20037;-70
2023/04/21 10:36:44;;;;;;;11.27;10.38;;;22.70;90.60;;;;;;5051442;28;20033;-68
2023/04/21 10:39:12;;;;;;;12.20;10.38;;;22.70;90.40;;;;;;5050853;28;20028;-68
2023/04/21 10:41:37;;;;;;;12.20;10.18;;;22.70;90.50;;;;;;5050812;28;20481;-68
2023/04/21 10:44:10;;;;;;;11.23;10.32;;;22.70;90.10;;;;;;5050612;28;20025;-70
2023/04/21 10:46:46;;;;;;;11.40;10.40;;;22.70;90.10;;;;;;5049578;28;20037;-69
2023/04/21 10:49:18;;;;;;;10.50;9.63;;;22.80;90.20;;;;;;5051437;28;20103;-70
2023/04/21 10:52:01;;;;;;;11.48;10.50;;;22.80;90.00;;;;;;5052074;28;20032;-69
2023/04/21 10:54:40;;;;;;;10.77;9.90;;;22.80;90.00;;;;;;5052198;28;20044;-69
2023/04/21 10:57:10;;;;;;;10.63;9.60;;;22.80;89.70;;;;;;5052873;28;20068;-69
2023/04/21 10:59:36;;;;;;;9.85;9.05;;;22.80;90.00;;;;;;5052553;28;20343;-71
2023/04/21 11:02:03;;;;;;;11.05;10.25;;;22.80;89.70;;;;;;5051358;28;20448;-70
2023/04/21 11:04:30;;;;;;;12.30;10.73;;;22.80;89.10;;;;;;5052201;28;20033;-68
2023/04/21 11:07:06;;;;;;;11.73;10.65;;;22.90;89.60;;;;;;5052520;28;20500;-65
2023/04/21 11:09:32;;;;;;;11.80;10.90;;;22.90;89.40;;;;;;5050433;28;20151;-65
2023/04/21 11:12:03;;;;;;;18.88;10.98;;;22.90;89.10;;;;;;5050112;28;20108;-65
2023/04/21 11:14:29;;;;;;;12.02;10.55;;;22.90;89.10;;;;;;5049944;28;20036;-64
2023/04/21 11:16:55;;;;;;;13.15;11.23;;;22.90;88.80;;;;;;5051407;28;20020;-64
2023/04/21 11:19:23;;;;;;;12.85;11.70;;;22.90;89.10;;;;;;5051208;28;20473;-65
2023/04/21 11:21:49;;;;;;;13.00;11.80;;;23.00;88.50;;;;;;5051129;28;20060;-64
2023/04/21 11:24:14;;;;;;;12.57;11.73;;;23.00;88.40;;;;;;5051111;28;20051;-65
2023/04/21 11:26:43;;;;;;;12.55;11.45;;;23.00;88.70;;;;;;5051109;28;20489;-65
2023/04/21 11:29:10;;;;;;;12.50;11.38;;;23.00;88.40;;;;;;5051043;28;20025;-65
2023/04/21 11:31:40;;;;;;;12.85;11.65;;;23.00;88.40;;;;;;5049825;28;20061;-65
2023/04/21 11:34:06;;;;;;;;;;;23.00;88.10;;;;;;5050717;28;20021;-65
2023/04/21 11:36:52;;;;;;;12.30;11.30;;;23.00;88.30;;;;;;5051212;28;19904;-65
2023/04/21 11:39:18;;;;;;;11.55;10.55;;;23.00;88.10;;;;;;5051488;28;20033;-65
2023/04/21 11:41:49;;;;;;;11.95;11.15;;;23.00;88.00;;;;;;5052113;28;20100;-67
2023/04/21 11:44:33;;;;;;;11.65;10.57;;;23.10;88.30;;;;;;5051173;28;20029;-66
2023/04/21 11:46:59;;;;;;;12.13;11.23;;;23.10;89.40;;;;;;5051741;28;20522;-65
2023/04/21 11:49:29;;;;;;;12.43;11.32;;;23.20;88.30;;;;;;5051249;28;20949;-66
2023/04/21 11:51:55;;;;;;;11.87;10.77;;;23.20;89.10;;;;;;5051077;28;20068;-66
2023/04/21 11:54:23;;;;;;;11.20;10.40;;;23.20;88.20;;;;;;5051606;28;20061;-65
2023/04/21 11:56:49;;;;;;;11.77;10.88;;;23.20;88.60;;;;;;5050561;28;20140;-65
2023/04/21 11:59:18;;;;;;;11.38;10.55;;;23.30;89.00;;;;;;5051746;28;20029;-66
2023/04/21 12:01:49;;;;;;;12.60;10.40;;;23.30;88.30;;;;;;5051775;28;20094;-66
2023/04/21 12:04:16;;;;;;;11.90;10.93;;;23.30;87.60;;;;;;5051100;28;20021;-66
2023/04/21 12:06:42;;;;;;;11.32;10.52;;;23.30;87.30;;;;;;5051772;28;20401;-66
2023/04/21 12:09:16;;;;;;;11.48;10.68;;;23.30;87.20;;;;;;5051401;28;20532;-66
2023/04/21 12:11:42;;;;;;;11.50;10.65;;;23.40;87.10;;;;;;5051293;28;20025;-66
2023/04/21 12:14:07;;;;;;;11.38;10.55;;;23.40;87.30;;;;;;5051390;28;20036;-66
2023/04/21 12:16:36;;;;;;;11.27;10.38;;;23.40;86.90;;;;;;5051465;28;20052;-66
2023/04/21 12:19:01;;;;;;;11.23;10.35;;;23.30;87.50;;;;;;5050536;28;20055;-67
2023/04/21 12:21:28;;;;;;;11.15;10.30;;;23.40;86.80;;;;;;5051771;28;20037;-66
2023/04/21 12:23:53;;;;;;;10.85;10.07;;;23.40;87.00;;;;;;5051499;28;20025;-66
2023/04/21 12:26:21;;;;;;;10.70;9.68;;;23.40;86.70;;;;;;5050287;28;20415;-65
2023/04/21 12:28:46;;;;;;;9.23;8.63;;;23.30;86.90;;;;;;5051845;28;20021;-64
2023/04/21 12:31:12;;;;;;;10.85;9.65;;;23.40;86.30;;;;;;5050794;28;20036;-67
2023/04/21 12:33:38;;;;;;;10.27;9.55;;;23.40;86.50;;;;;;5050629;28;20021;-66
2023/04/21 12:36:04;;;;;;;10.20;9.50;;;23.40;87.00;;;;;;5053129;28;20029;-67